createdAt,value
2018-06-22T00:00:51.111Z,76.90
2018-06-22T00:05:47.002Z,76.50
2018-06-22T00:08:14.993Z,76.50
2018-06-22T00:10:43.019Z,76.70
2018-06-22T00:13:11.059Z,76.90
2018-06-22T00:15:39.082Z,77.30
2018-06-22T00:18:07.127Z,77.60
2018-06-22T00:20:35.171Z,77.70
2018-06-22T00:23:03.174Z,77.90
2018-06-22T00:25:31.211Z,77.90
2018-06-22T00:27:59.218Z,78.30
2018-06-22T00:30:27.239Z,78.60
2018-06-22T00:32:55.255Z,78.70
2018-06-22T00:35:23.308Z,78.80
2018-06-22T00:37:51.338Z,79.10
2018-06-22T00:42:47.193Z,79.30
2018-06-22T00:45:15.202Z,79.30
2018-06-22T00:47:43.218Z,79.60
2018-06-22T00:50:11.267Z,79.90
2018-06-22T00:52:39.303Z,80.10
2018-06-22T00:55:07.328Z,80.80
2018-06-22T00:57:35.370Z,81.90
2018-06-22T01:00:03.390Z,81.60
2018-06-22T01:02:31.432Z,82.10
2018-06-22T01:04:59.499Z,82.60
2018-06-22T01:07:27.555Z,83.10
2018-06-22T01:09:55.588Z,83.90
2018-06-22T01:12:23.614Z,84.30
2018-06-22T01:14:51.658Z,84.80
2018-06-22T01:17:19.690Z,85.50
2018-06-22T01:19:47.719Z,86.10
2018-06-22T01:22:15.817Z,86.80
2018-06-22T01:24:43.783Z,87.70
2018-06-22T01:27:11.850Z,88.80
2018-06-22T01:29:39.880Z,90.00
2018-06-22T01:32:07.927Z,90.60
2018-06-22T01:34:35.966Z,91.30
2018-06-22T01:37:03.354Z,92.20
2018-06-22T01:39:31.395Z,92.30
2018-06-22T01:41:59.431Z,92.60
2018-06-22T01:44:27.466Z,93.10
2018-06-22T01:46:55.514Z,94.10
2018-06-22T01:49:23.539Z,95.00
2018-06-22T01:51:51.582Z,95.60
2018-06-22T01:54:19.609Z,96.10
2018-06-22T01:56:47.651Z,96.50
2018-06-22T01:59:15.709Z,97.50
2018-06-22T02:01:43.746Z,97.90
2018-06-22T02:04:11.779Z,98.40
2018-06-22T02:06:39.806Z,98.90
2018-06-22T02:11:36.374Z,99.50
2018-06-22T02:14:04.734Z,99.90
2018-06-22T02:16:32.754Z,99.90
2018-06-22T02:19:00.150Z,99.90
2018-06-22T02:21:27.522Z,99.90
2018-06-22T02:23:54.926Z,99.90
2018-06-22T02:26:22.975Z,99.90
2018-06-22T02:28:50.353Z,99.90
2018-06-22T02:31:17.753Z,99.90
2018-06-22T02:33:45.362Z,99.90
2018-06-22T02:36:12.742Z,99.90
2018-06-22T02:38:40.818Z,99.90
2018-06-22T02:41:08.864Z,99.90
2018-06-22T02:43:36.891Z,99.90
2018-06-22T02:46:04.992Z,99.90
2018-06-22T02:48:33.238Z,99.90
2018-06-22T02:51:01.259Z,99.90
2018-06-22T02:53:29.447Z,99.90
2018-06-22T02:55:57.598Z,99.90
2018-06-22T02:58:25.622Z,99.90
2018-06-22T03:00:53.150Z,99.90
2018-06-22T03:03:21.189Z,99.90
2018-06-22T03:08:17.174Z,99.90
2018-06-22T03:10:45.214Z,99.90
2018-06-22T03:13:13.260Z,99.90
2018-06-22T03:15:41.296Z,99.90
2018-06-22T03:20:37.139Z,99.90
2018-06-22T03:23:05.167Z,99.90
2018-06-22T03:25:33.187Z,99.90
2018-06-22T03:28:00.557Z,99.90
2018-06-22T03:30:28.561Z,99.90
2018-06-22T03:32:56.574Z,99.90
2018-06-22T03:35:24.579Z,99.90
2018-06-22T03:37:52.607Z,99.90
2018-06-22T03:40:20.615Z,99.90
2018-06-22T03:42:48.630Z,99.90
2018-06-22T03:45:15.988Z,99.90
2018-06-22T03:47:44.023Z,99.90
2018-06-22T03:50:12.046Z,99.90
2018-06-22T03:52:39.399Z,99.90
2018-06-22T03:55:07.407Z,99.90
2018-06-22T03:57:35.431Z,99.90
2018-06-22T04:00:03.464Z,99.90
2018-06-22T04:02:30.825Z,99.90
2018-06-22T04:04:58.863Z,99.90
2018-06-22T04:07:26.221Z,99.90
2018-06-22T04:09:53.581Z,99.90
2018-06-22T04:12:21.595Z,99.90
2018-06-22T04:14:48.962Z,99.90
2018-06-22T04:17:16.336Z,99.90
2018-06-22T04:19:43.697Z,99.90
2018-06-22T04:22:11.754Z,99.90
2018-06-22T04:24:39.114Z,99.90
2018-06-22T04:27:07.141Z,99.90
2018-06-22T04:29:34.506Z,99.90
2018-06-22T04:32:01.875Z,99.90
2018-06-22T04:34:29.237Z,99.90
2018-06-22T04:36:57.252Z,99.90
2018-06-22T04:41:52.410Z,99.90
2018-06-22T04:44:19.833Z,99.90
2018-06-22T04:49:15.011Z,99.90
2018-06-22T04:51:42.381Z,99.90
2018-06-22T04:54:10.411Z,99.90
2018-06-22T04:56:38.574Z,99.90
2018-06-22T04:59:05.938Z,99.90
2018-06-22T05:01:33.294Z,99.90
2018-06-22T05:04:01.306Z,99.90
2018-06-22T05:06:28.661Z,99.90
2018-06-22T05:08:56.026Z,99.90
2018-06-22T05:11:23.617Z,99.90
2018-06-22T05:13:51.058Z,99.90
2018-06-22T05:16:19.105Z,99.90
2018-06-22T05:18:46.498Z,99.90
2018-06-22T05:21:14.680Z,99.90
2018-06-22T05:23:42.046Z,99.90
2018-06-22T05:26:09.440Z,99.90
2018-06-22T05:28:36.789Z,99.90
2018-06-22T05:31:04.158Z,99.90
2018-06-22T05:33:31.532Z,99.90
2018-06-22T05:35:58.928Z,99.90
2018-06-22T05:38:26.306Z,99.90
2018-06-22T05:40:53.666Z,99.90
2018-06-22T05:43:21.025Z,99.90
2018-06-22T05:45:48.389Z,99.90
2018-06-22T05:48:15.774Z,99.90
2018-06-22T05:50:43.222Z,99.90
2018-06-22T05:53:10.535Z,99.90
2018-06-22T05:55:37.895Z,99.90
2018-06-22T06:00:32.418Z,99.90
2018-06-22T06:02:59.820Z,99.90
2018-06-22T06:05:27.836Z,99.90
2018-06-22T06:07:55.883Z,99.90
2018-06-22T06:10:23.923Z,99.90
2018-06-22T06:12:51.950Z,99.90
2018-06-22T06:15:19.998Z,99.90
2018-06-22T06:17:48.196Z,99.90
2018-06-22T06:20:16.237Z,99.90
2018-06-22T06:22:44.259Z,99.50
2018-06-22T06:27:40.115Z,98.00
2018-06-22T06:30:08.147Z,96.70
2018-06-22T06:32:36.167Z,96.50
2018-06-22T06:37:32.014Z,95.50
2018-06-22T06:40:00.049Z,95.80
2018-06-22T06:42:28.067Z,95.60
2018-06-22T06:44:56.102Z,95.40
2018-06-22T06:47:23.478Z,96.30
2018-06-22T06:49:51.509Z,95.20
2018-06-22T06:52:19.523Z,94.20
2018-06-22T06:54:47.559Z,94.10
2018-06-22T06:57:15.584Z,93.20
2018-06-22T06:59:42.954Z,93.30
2018-06-22T07:02:10.332Z,93.70
2018-06-22T07:04:37.710Z,94.10
2018-06-22T07:07:05.073Z,92.80
2018-06-22T07:12:00.254Z,93.10
2018-06-22T07:14:27.643Z,92.00
2018-06-22T07:16:54.994Z,91.10
2018-06-22T07:19:23.014Z,90.90
2018-06-22T07:21:50.631Z,90.80
2018-06-22T07:24:18.014Z,90.60
2018-06-22T07:26:45.720Z,87.10
2018-06-22T07:29:13.093Z,88.40
2018-06-22T07:31:40.462Z,87.20
2018-06-22T07:34:07.825Z,86.70
2018-06-22T07:36:35.198Z,87.40
2018-06-22T07:39:04.264Z,87.90
2018-06-22T07:41:32.291Z,86.90
2018-06-22T07:43:59.728Z,89.10
2018-06-22T07:46:27.034Z,86.30
2018-06-22T07:48:54.401Z,85.80
2018-06-22T07:51:21.766Z,85.10
2018-06-22T07:53:49.925Z,83.30
2018-06-22T07:56:17.292Z,82.00
2018-06-22T07:58:45.317Z,83.60
2018-06-22T08:01:12.718Z,82.50
2018-06-22T08:03:40.093Z,82.50
2018-06-22T08:06:08.190Z,83.60
2018-06-22T08:08:35.486Z,81.90
2018-06-22T08:11:02.862Z,79.00
2018-06-22T08:13:30.223Z,80.30
2018-06-22T08:15:57.597Z,79.60
2018-06-22T08:18:24.969Z,78.60
2018-06-22T08:23:19.507Z,79.80
2018-06-22T08:25:47.555Z,81.10
2018-06-22T08:28:15.574Z,81.80
2018-06-22T08:30:42.942Z,79.80
2018-06-22T08:33:10.334Z,78.30
2018-06-22T08:38:05.888Z,77.70
2018-06-22T08:40:33.253Z,77.70
2018-06-22T08:43:01.285Z,76.50
2018-06-22T08:45:28.674Z,76.20
2018-06-22T08:47:56.698Z,75.00
2018-06-22T08:50:24.742Z,75.10
2018-06-22T08:52:52.798Z,73.60
2018-06-22T08:55:20.167Z,72.40
2018-06-22T08:57:48.188Z,72.70
2018-06-22T09:00:15.770Z,73.30
2018-06-22T09:02:43.138Z,76.40
2018-06-22T09:05:10.512Z,77.60
2018-06-22T09:07:37.874Z,74.70
2018-06-22T09:10:05.296Z,74.60
2018-06-22T09:12:32.710Z,74.50
2018-06-22T09:15:00.026Z,75.70
2018-06-22T09:17:28.662Z,74.90
2018-06-22T09:19:56.006Z,73.20
2018-06-22T09:22:24.062Z,72.80
2018-06-22T09:24:51.442Z,72.60
2018-06-22T09:27:18.835Z,71.50
2018-06-22T09:29:46.186Z,70.70
2018-06-22T09:32:13.558Z,72.30
2018-06-22T09:34:41.177Z,71.90
2018-06-22T09:39:35.722Z,70.00
2018-06-22T09:42:03.090Z,71.70
2018-06-22T09:44:31.865Z,72.70
2018-06-22T09:46:59.405Z,74.50
2018-06-22T09:49:27.161Z,73.30
2018-06-22T09:51:54.910Z,72.20
2018-06-22T09:54:22.950Z,73.10
2018-06-22T09:56:51.188Z,72.10
2018-06-22T09:59:18.638Z,73.10
2018-06-22T10:01:45.974Z,72.30
2018-06-22T10:04:14.008Z,71.30
2018-06-22T10:06:41.370Z,72.40
2018-06-22T10:09:09.770Z,73.60
2018-06-22T10:11:37.142Z,70.80
2018-06-22T10:14:04.789Z,72.60
2018-06-22T10:16:32.158Z,69.50
2018-06-22T10:18:59.521Z,69.70
2018-06-22T10:21:26.890Z,70.90
2018-06-22T10:23:54.258Z,70.50
2018-06-22T10:26:21.674Z,70.50
2018-06-22T10:28:49.058Z,71.10
2018-06-22T10:31:16.437Z,72.40
2018-06-22T10:33:43.810Z,70.40
2018-06-22T10:36:11.189Z,69.50
2018-06-22T10:38:39.260Z,69.20
2018-06-22T10:41:06.925Z,69.40
2018-06-22T10:43:34.294Z,71.00
2018-06-22T10:46:01.702Z,70.10
2018-06-22T10:48:29.038Z,72.30
2018-06-22T10:50:57.060Z,72.80
2018-06-22T10:53:24.638Z,71.20
2018-06-22T10:55:52.039Z,70.90
2018-06-22T10:58:19.415Z,72.70
2018-06-22T11:00:47.061Z,71.10
2018-06-22T11:03:14.611Z,70.30
2018-06-22T11:05:42.032Z,69.40
2018-06-22T11:08:09.391Z,66.90
2018-06-22T11:10:36.756Z,67.60
2018-06-22T11:13:05.003Z,65.20
2018-06-22T11:15:32.746Z,65.90
2018-06-22T11:18:00.186Z,66.10
2018-06-22T11:20:27.583Z,63.90
2018-06-22T11:22:54.950Z,62.60
2018-06-22T11:25:22.321Z,63.80
2018-06-22T11:27:49.698Z,62.90
2018-06-22T11:30:17.066Z,64.40
2018-06-22T11:32:44.441Z,62.80
2018-06-22T11:37:39.630Z,63.70
2018-06-22T11:42:35.495Z,63.50
2018-06-22T11:45:02.890Z,63.50
2018-06-22T11:47:30.278Z,66.20
2018-06-22T11:49:57.648Z,66.40
2018-06-22T11:52:25.023Z,66.20
2018-06-22T11:54:52.387Z,66.10
2018-06-22T11:57:19.750Z,66.10
2018-06-22T11:59:47.775Z,66.20
2018-06-22T12:02:15.836Z,66.20
2018-06-22T12:04:43.273Z,65.90
2018-06-22T12:07:11.227Z,66.10
2018-06-22T12:09:38.609Z,65.40
2018-06-22T12:12:05.981Z,66.80
2018-06-22T12:14:33.351Z,65.20
2018-06-22T12:17:00.726Z,64.10
2018-06-22T12:19:28.765Z,65.00
2018-06-22T12:21:56.134Z,65.30
2018-06-22T12:26:50.650Z,65.80
2018-06-22T12:29:18.666Z,64.40
2018-06-22T12:31:46.057Z,64.20
2018-06-22T12:34:14.087Z,64.00
2018-06-22T12:36:41.454Z,63.90
2018-06-22T12:39:11.446Z,63.50
2018-06-22T12:41:38.831Z,62.60
2018-06-22T12:44:06.290Z,64.30
2018-06-22T12:46:34.804Z,64.50
2018-06-22T12:49:02.171Z,64.80
2018-06-22T12:51:29.726Z,63.30
2018-06-22T12:53:57.086Z,63.20
2018-06-22T12:58:52.258Z,65.60
2018-06-22T13:03:46.813Z,65.90
2018-06-22T13:06:14.859Z,66.10
2018-06-22T13:08:42.895Z,66.00
2018-06-22T13:11:10.277Z,67.80
2018-06-22T13:13:38.061Z,67.40
2018-06-22T13:16:06.105Z,66.50
2018-06-22T13:21:01.290Z,64.60
2018-06-22T13:25:56.470Z,64.60
2018-06-22T13:28:24.502Z,63.30
2018-06-22T13:30:52.556Z,63.20
2018-06-22T13:33:19.932Z,63.50
2018-06-22T13:38:15.115Z,64.80
2018-06-22T13:40:42.485Z,65.10
2018-06-22T13:43:10.514Z,65.80
2018-06-22T13:48:06.414Z,64.80
2018-06-22T13:53:01.682Z,64.60
2018-06-22T13:55:29.046Z,63.20
2018-06-22T13:57:56.414Z,61.20
2018-06-22T14:00:24.446Z,62.60
2018-06-22T14:02:51.823Z,63.20
2018-06-22T14:05:24.755Z,63.30
2018-06-22T14:07:52.806Z,62.00
2018-06-22T14:12:47.369Z,60.00
2018-06-22T14:15:14.763Z,59.20
2018-06-22T14:17:42.135Z,57.60
2018-06-22T14:20:09.526Z,59.00
2018-06-22T14:25:04.826Z,59.80
2018-06-22T14:27:32.210Z,61.70
2018-06-22T14:29:59.579Z,62.00
2018-06-22T14:34:54.778Z,62.50
2018-06-22T14:39:50.628Z,59.60
2018-06-22T14:42:18.634Z,59.40
2018-06-22T14:47:14.476Z,58.90
2018-06-22T14:49:41.849Z,59.20
2018-06-22T14:52:09.237Z,60.20
2018-06-22T14:54:42.182Z,59.40
2018-06-22T14:57:15.779Z,58.50
2018-06-22T14:59:49.214Z,59.40
2018-06-22T15:02:22.110Z,59.10
2018-06-22T15:04:55.598Z,59.20
2018-06-22T15:07:28.588Z,58.80
2018-06-22T15:09:55.983Z,58.00
2018-06-22T15:12:23.353Z,57.10
2018-06-22T15:14:50.718Z,56.40
2018-06-22T15:17:18.106Z,56.60
2018-06-22T15:19:46.138Z,56.10
2018-06-22T15:22:14.406Z,56.10
2018-06-22T15:24:42.435Z,56.60
2018-06-22T15:27:10.667Z,57.10
2018-06-22T15:29:38.033Z,56.40
2018-06-22T15:32:06.079Z,56.80
2018-06-22T15:34:38.825Z,57.10
2018-06-22T15:37:12.350Z,57.50
2018-06-22T15:39:45.458Z,59.20
2018-06-22T15:42:18.902Z,58.90
2018-06-22T15:44:52.312Z,59.90
2018-06-22T15:47:25.342Z,59.40
2018-06-22T15:49:58.646Z,58.60
2018-06-22T15:52:31.701Z,58.70
2018-06-22T15:55:00.682Z,58.40
2018-06-22T15:57:28.702Z,58.30
2018-06-22T15:59:56.966Z,57.10
2018-06-22T16:04:57.725Z,55.70
2018-06-22T16:07:25.103Z,55.70
2018-06-22T16:09:57.981Z,57.30
2018-06-22T16:12:30.870Z,57.70
2018-06-22T16:15:03.939Z,56.50
2018-06-22T16:17:36.827Z,57.00
2018-06-22T16:20:09.805Z,57.30
2018-06-22T16:25:15.445Z,59.10
2018-06-22T16:27:46.198Z,58.90
2018-06-22T16:30:13.571Z,58.70
2018-06-22T16:32:40.939Z,59.10
2018-06-22T16:35:08.311Z,59.50
2018-06-22T16:37:35.677Z,60.40
2018-06-22T16:40:03.046Z,60.40
2018-06-22T16:42:31.087Z,60.00
2018-06-22T16:44:59.107Z,60.30
2018-06-22T16:47:27.129Z,60.70
2018-06-22T16:49:55.163Z,60.00
2018-06-22T16:52:23.231Z,60.10
2018-06-22T16:54:50.610Z,60.80
2018-06-22T16:57:18.002Z,60.30
2018-06-22T16:59:45.374Z,60.40
2018-06-22T17:02:12.757Z,60.10
2018-06-22T17:07:14.287Z,60.10
2018-06-22T17:09:47.088Z,59.90
2018-06-22T17:12:19.866Z,63.60
2018-06-22T17:14:52.974Z,65.10
2018-06-22T17:17:26.520Z,62.80
2018-06-22T17:19:53.871Z,65.00
2018-06-22T17:22:21.239Z,66.10
2018-06-22T17:24:48.612Z,64.30
2018-06-22T17:27:15.974Z,62.70
2018-06-22T17:29:44.026Z,64.10
2018-06-22T17:32:11.390Z,63.00
2018-06-22T17:34:39.415Z,61.90
2018-06-22T17:37:07.434Z,64.50
2018-06-22T17:39:35.453Z,62.90
2018-06-22T17:42:02.831Z,63.00
2018-06-22T17:44:30.850Z,63.50
2018-06-22T17:46:58.878Z,62.20
2018-06-22T17:51:54.200Z,61.30
2018-06-22T17:54:21.563Z,62.20
2018-06-22T17:56:52.283Z,62.20
2018-06-22T17:59:25.136Z,62.40
2018-06-22T18:01:58.672Z,61.10
2018-06-22T18:04:31.438Z,60.60
2018-06-22T18:07:04.323Z,59.50
2018-06-22T18:14:37.305Z,59.20
2018-06-22T18:19:31.997Z,59.00
2018-06-22T18:22:00.944Z,58.90
2018-06-22T18:24:28.443Z,58.90
2018-06-22T18:26:56.265Z,59.20
2018-06-22T18:29:23.714Z,59.00
2018-06-22T18:31:53.149Z,59.50
2018-06-22T18:34:21.110Z,59.90
2018-06-22T18:36:48.766Z,60.40
2018-06-22T18:44:17.059Z,61.50
2018-06-22T18:46:45.546Z,62.30
2018-06-22T18:49:14.413Z,62.30
2018-06-22T18:51:42.392Z,62.70
2018-06-22T18:54:15.322Z,63.40
2018-06-22T18:56:48.196Z,63.90
2018-06-22T19:01:21.819Z,64.70
2018-06-22T19:03:49.662Z,64.20
2018-06-22T19:06:17.258Z,62.60
2018-06-22T19:08:44.630Z,62.80
2018-06-22T19:11:11.984Z,63.30
2018-06-22T19:13:39.670Z,64.00
2018-06-22T19:16:07.035Z,64.80
2018-06-22T19:18:34.411Z,64.80
2018-06-22T19:21:02.439Z,65.10
2018-06-22T19:23:30.452Z,65.50
2018-06-22T19:25:58.458Z,66.20
2018-06-22T19:28:25.826Z,66.40
2018-06-22T19:30:53.186Z,67.10
2018-06-22T19:33:20.545Z,67.90
2018-06-22T19:35:47.910Z,68.40
2018-06-22T19:38:15.267Z,69.00
2018-06-22T19:40:43.291Z,69.50
2018-06-22T19:43:15.039Z,70.20
2018-06-22T19:45:48.034Z,71.40
2018-06-22T19:48:21.680Z,72.50
2018-06-22T19:50:55.078Z,73.10
2018-06-22T19:53:28.006Z,73.80
2018-06-22T19:55:56.014Z,73.90
2018-06-22T19:58:24.043Z,74.20
2018-06-22T20:00:51.415Z,74.30
2018-06-22T20:03:19.049Z,74.70
2018-06-22T20:05:46.406Z,75.00
2018-06-22T20:08:13.773Z,74.80
2018-06-22T20:10:41.803Z,75.00
2018-06-22T20:13:09.831Z,74.40
2018-06-22T20:15:37.209Z,74.90
2018-06-22T20:18:05.382Z,74.50
2018-06-22T20:20:33.437Z,76.00
2018-06-22T20:23:01.467Z,75.20
2018-06-22T20:25:34.955Z,75.60
2018-06-22T20:28:02.999Z,75.50
2018-06-22T20:30:31.159Z,76.30
2018-06-22T20:32:59.186Z,76.70
2018-06-22T20:35:32.743Z,77.10
2018-06-22T20:38:06.241Z,77.90
2018-06-22T20:40:39.739Z,77.80
2018-06-22T20:43:13.187Z,79.00
2018-06-22T20:45:45.818Z,79.50
2018-06-22T20:48:19.393Z,79.30
2018-06-22T20:50:47.343Z,79.60
2018-06-22T20:53:15.367Z,79.90
2018-06-22T20:55:43.436Z,80.90
2018-06-22T20:58:11.517Z,80.20
2018-06-22T21:00:39.546Z,81.00
2018-06-22T21:03:07.582Z,80.80
2018-06-22T21:08:03.502Z,82.00
2018-06-22T21:12:59.652Z,82.00
2018-06-22T21:15:27.586Z,82.10
2018-06-22T21:17:55.611Z,82.00
2018-06-22T21:20:23.622Z,82.70
2018-06-22T21:22:51.654Z,83.10
2018-06-22T21:25:19.679Z,83.70
2018-06-22T21:27:53.124Z,83.50
2018-06-22T21:30:26.514Z,84.70
2018-06-22T21:33:00.127Z,84.80
2018-06-22T21:35:33.014Z,86.40
2018-06-22T21:38:05.854Z,87.40
2018-06-22T21:40:33.406Z,87.90
2018-06-22T21:43:00.862Z,88.70
2018-06-22T21:45:28.882Z,89.70
2018-06-22T21:47:56.252Z,90.40
2018-06-22T21:50:23.609Z,90.80
2018-06-22T21:52:51.001Z,91.00
2018-06-22T21:55:18.361Z,91.40
2018-06-22T21:57:45.752Z,91.70
2018-06-22T22:00:15.334Z,92.20
2018-06-22T22:02:42.712Z,92.70
2018-06-22T22:05:10.078Z,93.20
2018-06-22T22:07:37.454Z,93.50
2018-06-22T22:10:05.098Z,93.90
2018-06-22T22:12:32.478Z,94.10
2018-06-22T22:14:59.866Z,94.20
2018-06-22T22:17:28.220Z,94.60
2018-06-22T22:22:24.076Z,94.80
2018-06-22T22:24:52.093Z,94.80
2018-06-22T22:27:20.118Z,95.10
2018-06-22T22:29:48.143Z,95.20
2018-06-22T22:32:16.175Z,95.70
2018-06-22T22:34:44.205Z,95.90
2018-06-22T22:39:40.058Z,96.90
2018-06-22T22:42:08.074Z,97.40
2018-06-22T22:44:36.126Z,97.80
2018-06-22T22:47:04.199Z,98.00
2018-06-22T22:49:32.218Z,98.40
2018-06-22T22:54:28.055Z,98.70
2018-06-22T22:56:56.074Z,98.90
2018-06-22T22:59:24.099Z,99.50
2018-06-22T23:01:52.151Z,99.30
2018-06-22T23:04:20.200Z,99.10
2018-06-22T23:06:48.199Z,99.00
2018-06-22T23:09:15.571Z,99.00
2018-06-22T23:11:42.951Z,99.90
2018-06-22T23:14:10.325Z,99.50
2018-06-22T23:16:37.697Z,99.50
2018-06-22T23:19:05.073Z,99.70
2018-06-22T23:21:32.449Z,99.80
2018-06-22T23:23:59.824Z,99.90
2018-06-22T23:26:27.189Z,99.90
2018-06-22T23:28:55.206Z,99.90
2018-06-22T23:31:23.236Z,99.90
2018-06-22T23:33:51.246Z,99.90
2018-06-22T23:36:19.287Z,99.90
2018-06-22T23:38:47.314Z,99.90
2018-06-22T23:41:15.354Z,99.90
2018-06-22T23:43:43.386Z,99.90
2018-06-22T23:46:11.423Z,99.90
2018-06-22T23:48:39.463Z,99.90
2018-06-22T23:51:07.590Z,99.90
2018-06-22T23:56:03.437Z,99.90
2018-06-22T23:58:31.471Z,99.90
